Startpagina
METAR-TAF:

METAR-TAF

Vliegvelden :

Carcassonne, Frankrijk

breedte: 43-13N, lengte: 002-19E, hoogte: 130 m

Actueel weer

Dit bericht is 42 minuten geleden gemaakt, om 20:30 UTC
Wind 8 kt uit het westen
Temperatuur 13°C
Vochtigheid 62%
Druk 1032 hPa
Zicht 10 km of meer
geen wolken onder 1500 m en geen cumulonimbus

METAR: LFMK 232030Z AUTO 26008KT CAVOK 13/06 Q1032

Tijdstip: 22:12 (21:12 UTC)

Verwachting

Dit bericht is 7 uur en het 12 minuten geleden gemaakt, om 14:00 UTC
Verwachting geldig van 23 om 15 UTC tot 24 om 15 UTC
Wind 12 kt uit het westen
Zicht 10 km of meer
geen wolken onder 1500 m en geen cumulonimbus
Tijdelijke
van 23 om 15 UTC tot 23 om 18 UTC
Wind 15 kt uit het westen met uitschieters tot 25 kt
Tijdelijke
van 24 om 03 UTC tot 24 om 11 UTC
Zicht: 4000 m
Gebroken wolken op 600 ft
nevel

TAF: LFMK 231400Z 2315/2415 28012KT CAVOK TEMPO 2315/2318 28015G25KT TEMPO 2403/2411 4000 BR BKN006

Waarnemingen en weersverwachtingen van meer dan 4000 vliegvelden (METAR en TAF).

De beschikbare stations zijn de gele en rode punten op de kaart.

Ga met uw muis naar het station om de naam te zien.

Klik dan om waarnemingen en weersverwachtingen te zien.

kaart wijzigen: klik op de groene knoppen met een zwart kruis om in te zoomen, op de groene knop met een streepje om uit te zoomen of op de groene pijlen voor aangrenzende kaarten.


METAR-TAF: